sensor_id;sensor_type;location;lat;lon;timestamp;temperature;humidity
38480;DHT22;62333;51.980;5.934;2023-02-18T00:01:56;12.00;96.00
38480;DHT22;62333;51.980;5.934;2023-02-18T00:04:22;12.00;96.10
38480;DHT22;62333;51.980;5.934;2023-02-18T00:06:48;12.00;96.10
38480;DHT22;62333;51.980;5.934;2023-02-18T00:09:13;12.00;96.10
38480;DHT22;62333;51.980;5.934;2023-02-18T00:11:39;12.00;96.10
38480;DHT22;62333;51.980;5.934;2023-02-18T00:14:09;12.00;96.10
38480;DHT22;62333;51.980;5.934;2023-02-18T00:16:35;12.00;96.20
38480;DHT22;62333;51.980;5.934;2023-02-18T00:19:03;12.00;96.20
38480;DHT22;62333;51.980;5.934;2023-02-18T00:21:29;12.00;96.20
38480;DHT22;62333;51.980;5.934;2023-02-18T00:23:56;11.90;96.30
38480;DHT22;62333;51.980;5.934;2023-02-18T00:26:22;11.90;96.30
38480;DHT22;62333;51.980;5.934;2023-02-18T00:28:48;11.90;96.40
38480;DHT22;62333;51.980;5.934;2023-02-18T00:31:18;11.90;96.40
38480;DHT22;62333;51.980;5.934;2023-02-18T00:33:45;11.90;96.50
38480;DHT22;62333;51.980;5.934;2023-02-18T00:36:14;11.80;96.50
38480;DHT22;62333;51.980;5.934;2023-02-18T00:38:46;11.90;96.60
38480;DHT22;62333;51.980;5.934;2023-02-18T00:41:12;11.80;96.60
38480;DHT22;62333;51.980;5.934;2023-02-18T00:43:38;11.80;96.60
38480;DHT22;62333;51.980;5.934;2023-02-18T00:46:04;11.80;96.60
38480;DHT22;62333;51.980;5.934;2023-02-18T00:48:31;11.80;96.60
38480;DHT22;62333;51.980;5.934;2023-02-18T00:50:56;11.80;96.70
38480;DHT22;62333;51.980;5.934;2023-02-18T00:53:22;11.80;96.70
38480;DHT22;62333;51.980;5.934;2023-02-18T00:55:49;11.80;96.70
38480;DHT22;62333;51.980;5.934;2023-02-18T00:58:15;11.80;96.70
38480;DHT22;62333;51.980;5.934;2023-02-18T01:00:41;11.80;96.70
38480;DHT22;62333;51.980;5.934;2023-02-18T01:03:07;11.80;96.70
38480;DHT22;62333;51.980;5.934;2023-02-18T01:05:35;11.80;96.70
38480;DHT22;62333;51.980;5.934;2023-02-18T01:08:01;11.80;96.70
38480;DHT22;62333;51.980;5.934;2023-02-18T01:10:27;11.80;96.80
38480;DHT22;62333;51.980;5.934;2023-02-18T01:12:53;11.80;96.80
38480;DHT22;62333;51.980;5.934;2023-02-18T01:15:18;11.80;96.80
38480;DHT22;62333;51.980;5.934;2023-02-18T01:17:44;11.80;96.90
38480;DHT22;62333;51.980;5.934;2023-02-18T01:20:11;11.80;96.90
38480;DHT22;62333;51.980;5.934;2023-02-18T01:22:37;11.80;96.90
38480;DHT22;62333;51.980;5.934;2023-02-18T01:25:03;11.80;96.90
38480;DHT22;62333;51.980;5.934;2023-02-18T01:27:29;11.80;96.90
38480;DHT22;62333;51.980;5.934;2023-02-18T01:29:54;11.80;96.90
38480;DHT22;62333;51.980;5.934;2023-02-18T01:32:20;11.80;96.90
38480;DHT22;62333;51.980;5.934;2023-02-18T01:34:46;11.80;96.80
38480;DHT22;62333;51.980;5.934;2023-02-18T01:37:12;11.80;96.80
38480;DHT22;62333;51.980;5.934;2023-02-18T01:39:38;11.80;96.80
38480;DHT22;62333;51.980;5.934;2023-02-18T01:42:04;11.90;96.80
38480;DHT22;62333;51.980;5.934;2023-02-18T01:44:33;11.90;96.80
38480;DHT22;62333;51.980;5.934;2023-02-18T01:46:58;11.80;96.80
38480;DHT22;62333;51.980;5.934;2023-02-18T01:49:33;11.90;96.80
38480;DHT22;62333;51.980;5.934;2023-02-18T01:52:06;11.90;96.70
38480;DHT22;62333;51.980;5.934;2023-02-18T01:54:38;11.90;96.70
38480;DHT22;62333;51.980;5.934;2023-02-18T01:57:09;11.90;97.00
38480;DHT22;62333;51.980;5.934;2023-02-18T01:59:42;11.80;96.80
38480;DHT22;62333;51.980;5.934;2023-02-18T02:02:12;11.80;96.80
38480;DHT22;62333;51.980;5.934;2023-02-18T02:04:38;11.80;96.80
38480;DHT22;62333;51.980;5.934;2023-02-18T02:07:04;11.80;96.80
38480;DHT22;62333;51.980;5.934;2023-02-18T02:09:32;11.80;96.80
38480;DHT22;62333;51.980;5.934;2023-02-18T02:39:25;11.80;97.20
38480;DHT22;62333;51.980;5.934;2023-02-18T02:44:53;11.80;97.10
38480;DHT22;62333;51.980;5.934;2023-02-18T02:47:31;11.80;97.10
38480;DHT22;62333;51.980;5.934;2023-02-18T02:50:09;11.80;97.10
38480;DHT22;62333;51.980;5.934;2023-02-18T02:52:49;11.80;97.20
38480;DHT22;62333;51.980;5.934;2023-02-18T02:55:15;11.80;97.20
38480;DHT22;62333;51.980;5.934;2023-02-18T02:57:47;11.90;97.20
38480;DHT22;62333;51.980;5.934;2023-02-18T03:00:16;11.90;97.30
38480;DHT22;62333;51.980;5.934;2023-02-18T03:03:01;11.90;97.40
38480;DHT22;62333;51.980;5.934;2023-02-18T03:11:07;11.80;97.60
38480;DHT22;62333;51.980;5.934;2023-02-18T03:16:47;11.90;97.80
38480;DHT22;62333;51.980;5.934;2023-02-18T03:19:19;11.90;97.80
38480;DHT22;62333;51.980;5.934;2023-02-18T03:21:52;11.90;98.00
38480;DHT22;62333;51.980;5.934;2023-02-18T03:24:27;11.90;98.00
38480;DHT22;62333;51.980;5.934;2023-02-18T03:27:04;11.90;98.10
38480;DHT22;62333;51.980;5.934;2023-02-18T03:29:30;12.00;98.10
38480;DHT22;62333;51.980;5.934;2023-02-18T03:32:01;12.00;98.10
38480;DHT22;62333;51.980;5.934;2023-02-18T03:34:29;12.00;98.10
38480;DHT22;62333;51.980;5.934;2023-02-18T03:36:57;12.00;98.10
38480;DHT22;62333;51.980;5.934;2023-02-18T03:39:25;12.00;98.10
38480;DHT22;62333;51.980;5.934;2023-02-18T03:41:52;12.00;98.10
38480;DHT22;62333;51.980;5.934;2023-02-18T03:44:18;12.00;98.20
38480;DHT22;62333;51.980;5.934;2023-02-18T03:46:44;12.00;98.10
38480;DHT22;62333;51.980;5.934;2023-02-18T03:49:11;12.00;98.10
38480;DHT22;62333;51.980;5.934;2023-02-18T03:51:36;12.00;98.20
38480;DHT22;62333;51.980;5.934;2023-02-18T03:54:02;12.00;98.20
38480;DHT22;62333;51.980;5.934;2023-02-18T03:56:28;12.00;98.20
38480;DHT22;62333;51.980;5.934;2023-02-18T03:58:53;12.00;98.30
38480;DHT22;62333;51.980;5.934;2023-02-18T04:01:19;12.00;98.40
38480;DHT22;62333;51.980;5.934;2023-02-18T04:03:45;12.00;98.40
38480;DHT22;62333;51.980;5.934;2023-02-18T04:06:11;12.00;98.50
38480;DHT22;62333;51.980;5.934;2023-02-18T04:08:36;12.00;98.50
38480;DHT22;62333;51.980;5.934;2023-02-18T04:11:02;12.00;98.50
38480;DHT22;62333;51.980;5.934;2023-02-18T04:13:29;12.00;98.50
38480;DHT22;62333;51.980;5.934;2023-02-18T04:15:55;12.00;98.60
38480;DHT22;62333;51.980;5.934;2023-02-18T04:18:21;12.00;98.60
38480;DHT22;62333;51.980;5.934;2023-02-18T04:20:47;12.00;98.70
38480;DHT22;62333;51.980;5.934;2023-02-18T04:23:13;11.90;98.80
38480;DHT22;62333;51.980;5.934;2023-02-18T04:25:40;11.90;98.80
38480;DHT22;62333;51.980;5.934;2023-02-18T04:28:05;11.90;98.80
38480;DHT22;62333;51.980;5.934;2023-02-18T04:30:31;11.90;98.80
38480;DHT22;62333;51.980;5.934;2023-02-18T04:32:57;12.00;98.80
38480;DHT22;62333;51.980;5.934;2023-02-18T04:35:23;11.90;98.90
38480;DHT22;62333;51.980;5.934;2023-02-18T04:37:49;11.90;98.90
38480;DHT22;62333;51.980;5.934;2023-02-18T04:40:15;12.00;98.90
38480;DHT22;62333;51.980;5.934;2023-02-18T04:42:40;12.00;99.00
38480;DHT22;62333;51.980;5.934;2023-02-18T04:45:06;12.00;99.00
38480;DHT22;62333;51.980;5.934;2023-02-18T04:47:32;12.00;99.00
38480;DHT22;62333;51.980;5.934;2023-02-18T04:49:58;12.00;99.00
38480;DHT22;62333;51.980;5.934;2023-02-18T04:52:24;12.00;99.10
38480;DHT22;62333;51.980;5.934;2023-02-18T04:54:49;11.90;99.10
38480;DHT22;62333;51.980;5.934;2023-02-18T04:57:15;11.90;99.20
38480;DHT22;62333;51.980;5.934;2023-02-18T04:59:41;11.90;99.20
38480;DHT22;62333;51.980;5.934;2023-02-18T05:02:06;11.90;99.30
38480;DHT22;62333;51.980;5.934;2023-02-18T05:04:32;11.90;99.30
38480;DHT22;62333;51.980;5.934;2023-02-18T05:06:58;11.90;99.30
38480;DHT22;62333;51.980;5.934;2023-02-18T05:09:24;11.90;99.30
38480;DHT22;62333;51.980;5.934;2023-02-18T05:11:50;11.90;99.30
38480;DHT22;62333;51.980;5.934;2023-02-18T05:14:16;11.90;99.40
38480;DHT22;62333;51.980;5.934;2023-02-18T05:16:42;11.90;99.40
38480;DHT22;62333;51.980;5.934;2023-02-18T05:19:09;11.90;99.40
38480;DHT22;62333;51.980;5.934;2023-02-18T05:21:38;11.90;99.40
38480;DHT22;62333;51.980;5.934;2023-02-18T05:24:04;11.90;99.50
38480;DHT22;62333;51.980;5.934;2023-02-18T05:26:29;11.90;99.40
38480;DHT22;62333;51.980;5.934;2023-02-18T05:28:55;11.90;99.40
38480;DHT22;62333;51.980;5.934;2023-02-18T05:31:22;11.90;99.40
38480;DHT22;62333;51.980;5.934;2023-02-18T05:33:47;11.90;99.40
38480;DHT22;62333;51.980;5.934;2023-02-18T05:36:13;11.90;99.40
38480;DHT22;62333;51.980;5.934;2023-02-18T05:38:39;11.90;99.40
38480;DHT22;62333;51.980;5.934;2023-02-18T05:41:04;11.90;99.50
38480;DHT22;62333;51.980;5.934;2023-02-18T05:43:30;11.90;99.50
38480;DHT22;62333;51.980;5.934;2023-02-18T05:46:15;11.80;99.50
38480;DHT22;62333;51.980;5.934;2023-02-18T05:48:41;11.80;99.50
38480;DHT22;62333;51.980;5.934;2023-02-18T05:51:07;11.80;99.50
38480;DHT22;62333;51.980;5.934;2023-02-18T05:53:32;11.80;99.60
38480;DHT22;62333;51.980;5.934;2023-02-18T05:55:58;11.80;99.60
38480;DHT22;62333;51.980;5.934;2023-02-18T05:58:23;11.80;99.60
38480;DHT22;62333;51.980;5.934;2023-02-18T06:00:49;11.80;99.60
38480;DHT22;62333;51.980;5.934;2023-02-18T06:03:15;11.80;99.60
38480;DHT22;62333;51.980;5.934;2023-02-18T06:05:40;11.80;99.60
38480;DHT22;62333;51.980;5.934;2023-02-18T06:08:06;11.80;99.60
38480;DHT22;62333;51.980;5.934;2023-02-18T06:10:32;11.70;99.60
38480;DHT22;62333;51.980;5.934;2023-02-18T06:12:57;11.70;99.60
38480;DHT22;62333;51.980;5.934;2023-02-18T06:15:24;11.70;99.60
38480;DHT22;62333;51.980;5.934;2023-02-18T06:17:50;11.70;99.60
38480;DHT22;62333;51.980;5.934;2023-02-18T06:20:15;11.70;99.60
38480;DHT22;62333;51.980;5.934;2023-02-18T06:22:41;11.70;99.60
38480;DHT22;62333;51.980;5.934;2023-02-18T06:25:07;11.70;99.60
38480;DHT22;62333;51.980;5.934;2023-02-18T06:27:32;11.70;99.60
38480;DHT22;62333;51.980;5.934;2023-02-18T06:29:58;11.70;99.60
38480;DHT22;62333;51.980;5.934;2023-02-18T06:32:24;11.70;99.60
38480;DHT22;62333;51.980;5.934;2023-02-18T06:34:49;11.70;99.60
38480;DHT22;62333;51.980;5.934;2023-02-18T06:37:15;11.70;99.50
38480;DHT22;62333;51.980;5.934;2023-02-18T06:39:41;11.70;99.50
38480;DHT22;62333;51.980;5.934;2023-02-18T06:42:06;11.70;99.50
38480;DHT22;62333;51.980;5.934;2023-02-18T06:44:32;11.70;99.50
38480;DHT22;62333;51.980;5.934;2023-02-18T06:46:57;11.70;99.50
38480;DHT22;62333;51.980;5.934;2023-02-18T06:49:23;11.70;99.50
38480;DHT22;62333;51.980;5.934;2023-02-18T06:51:49;11.70;99.50
38480;DHT22;62333;51.980;5.934;2023-02-18T06:54:14;11.70;99.50
38480;DHT22;62333;51.980;5.934;2023-02-18T06:56:40;11.70;99.50
38480;DHT22;62333;51.980;5.934;2023-02-18T06:59:05;11.70;99.50
38480;DHT22;62333;51.980;5.934;2023-02-18T07:01:32;11.70;99.50
38480;DHT22;62333;51.980;5.934;2023-02-18T07:03:58;11.60;99.50
38480;DHT22;62333;51.980;5.934;2023-02-18T07:06:23;11.70;99.50
38480;DHT22;62333;51.980;5.934;2023-02-18T07:08:49;11.60;99.50
38480;DHT22;62333;51.980;5.934;2023-02-18T07:11:15;11.60;99.50
38480;DHT22;62333;51.980;5.934;2023-02-18T07:13:40;11.60;99.50
38480;DHT22;62333;51.980;5.934;2023-02-18T07:16:06;11.60;99.50
38480;DHT22;62333;51.980;5.934;2023-02-18T07:18:32;11.60;99.50
38480;DHT22;62333;51.980;5.934;2023-02-18T07:20:57;11.60;99.50
38480;DHT22;62333;51.980;5.934;2023-02-18T07:23:23;11.60;99.50
38480;DHT22;62333;51.980;5.934;2023-02-18T07:25:49;11.60;99.50
38480;DHT22;62333;51.980;5.934;2023-02-18T07:28:15;11.60;99.40
38480;DHT22;62333;51.980;5.934;2023-02-18T07:30:40;11.60;99.40
38480;DHT22;62333;51.980;5.934;2023-02-18T07:33:06;11.60;99.40
38480;DHT22;62333;51.980;5.934;2023-02-18T07:35:32;11.60;99.40
38480;DHT22;62333;51.980;5.934;2023-02-18T07:37:57;11.60;99.30
38480;DHT22;62333;51.980;5.934;2023-02-18T07:40:23;11.60;99.20
38480;DHT22;62333;51.980;5.934;2023-02-18T07:42:49;11.60;99.20
38480;DHT22;62333;51.980;5.934;2023-02-18T07:45:14;11.60;99.10
38480;DHT22;62333;51.980;5.934;2023-02-18T07:47:40;11.60;99.00
38480;DHT22;62333;51.980;5.934;2023-02-18T07:50:07;11.60;99.00
38480;DHT22;62333;51.980;5.934;2023-02-18T07:52:33;11.60;98.90
38480;DHT22;62333;51.980;5.934;2023-02-18T07:54:59;11.60;98.80
38480;DHT22;62333;51.980;5.934;2023-02-18T07:57:25;11.60;98.70
38480;DHT22;62333;51.980;5.934;2023-02-18T07:59:51;11.60;98.70
38480;DHT22;62333;51.980;5.934;2023-02-18T08:02:20;11.50;98.70
38480;DHT22;62333;51.980;5.934;2023-02-18T08:04:47;11.60;98.70
38480;DHT22;62333;51.980;5.934;2023-02-18T08:07:15;11.50;98.70
38480;DHT22;62333;51.980;5.934;2023-02-18T08:09:41;11.50;98.60
38480;DHT22;62333;51.980;5.934;2023-02-18T08:12:07;11.50;98.80
38480;DHT22;62333;51.980;5.934;2023-02-18T08:14:33;11.50;98.50
38480;DHT22;62333;51.980;5.934;2023-02-18T08:16:58;11.50;98.40
38480;DHT22;62333;51.980;5.934;2023-02-18T08:19:24;11.50;98.10
38480;DHT22;62333;51.980;5.934;2023-02-18T08:21:50;11.50;97.80
38480;DHT22;62333;51.980;5.934;2023-02-18T08:24:15;11.50;97.60
38480;DHT22;62333;51.980;5.934;2023-02-18T08:26:41;11.50;97.50
38480;DHT22;62333;51.980;5.934;2023-02-18T08:29:07;11.50;97.50
38480;DHT22;62333;51.980;5.934;2023-02-18T08:31:33;11.50;97.30
38480;DHT22;62333;51.980;5.934;2023-02-18T08:33:58;11.60;97.20
38480;DHT22;62333;51.980;5.934;2023-02-18T08:36:25;11.60;97.10
38480;DHT22;62333;51.980;5.934;2023-02-18T08:38:51;11.60;97.10
38480;DHT22;62333;51.980;5.934;2023-02-18T08:41:17;11.60;96.90
38480;DHT22;62333;51.980;5.934;2023-02-18T08:43:43;11.60;96.90
38480;DHT22;62333;51.980;5.934;2023-02-18T08:46:10;11.60;96.90
38480;DHT22;62333;51.980;5.934;2023-02-18T08:48:36;11.60;96.90
38480;DHT22;62333;51.980;5.934;2023-02-18T08:51:19;11.60;96.70
38480;DHT22;62333;51.980;5.934;2023-02-18T08:53:46;11.60;96.50
38480;DHT22;62333;51.980;5.934;2023-02-18T08:56:13;11.60;96.60
38480;DHT22;62333;51.980;5.934;2023-02-18T08:58:39;11.60;96.60
38480;DHT22;62333;51.980;5.934;2023-02-18T09:01:08;11.60;96.50
38480;DHT22;62333;51.980;5.934;2023-02-18T09:03:34;11.60;96.60
38480;DHT22;62333;51.980;5.934;2023-02-18T09:06:00;11.60;96.60
38480;DHT22;62333;51.980;5.934;2023-02-18T09:08:26;11.60;96.60
38480;DHT22;62333;51.980;5.934;2023-02-18T09:10:56;11.50;96.60
38480;DHT22;62333;51.980;5.934;2023-02-18T09:13:23;11.50;96.60
38480;DHT22;62333;51.980;5.934;2023-02-18T09:15:59;11.50;96.60
38480;DHT22;62333;51.980;5.934;2023-02-18T09:18:25;11.50;96.60
38480;DHT22;62333;51.980;5.934;2023-02-18T09:20:54;11.40;96.60
38480;DHT22;62333;51.980;5.934;2023-02-18T09:23:20;11.40;96.50
38480;DHT22;62333;51.980;5.934;2023-02-18T09:25:45;11.40;96.60
38480;DHT22;62333;51.980;5.934;2023-02-18T09:28:11;11.30;96.70
38480;DHT22;62333;51.980;5.934;2023-02-18T09:30:38;11.30;96.80
38480;DHT22;62333;51.980;5.934;2023-02-18T09:33:04;11.30;96.90
38480;DHT22;62333;51.980;5.934;2023-02-18T09:35:30;11.30;97.00
38480;DHT22;62333;51.980;5.934;2023-02-18T09:37:56;11.30;97.10
38480;DHT22;62333;51.980;5.934;2023-02-18T09:40:31;11.30;97.20
38480;DHT22;62333;51.980;5.934;2023-02-18T09:42:58;11.20;97.20
38480;DHT22;62333;51.980;5.934;2023-02-18T09:45:25;11.30;97.30
38480;DHT22;62333;51.980;5.934;2023-02-18T09:47:52;11.30;97.20
38480;DHT22;62333;51.980;5.934;2023-02-18T09:50:29;11.20;97.20
38480;DHT22;62333;51.980;5.934;2023-02-18T09:53:01;11.30;97.20
38480;DHT22;62333;51.980;5.934;2023-02-18T09:55:32;11.30;97.20
38480;DHT22;62333;51.980;5.934;2023-02-18T09:58:20;11.30;97.20
38480;DHT22;62333;51.980;5.934;2023-02-18T10:00:53;11.30;97.10
38480;DHT22;62333;51.980;5.934;2023-02-18T10:03:23;11.30;97.00
38480;DHT22;62333;51.980;5.934;2023-02-18T10:06:02;11.30;96.80
38480;DHT22;62333;51.980;5.934;2023-02-18T10:08:33;11.30;96.80
38480;DHT22;62333;51.980;5.934;2023-02-18T10:10:59;11.40;96.80
38480;DHT22;62333;51.980;5.934;2023-02-18T10:13:29;11.40;97.00
38480;DHT22;62333;51.980;5.934;2023-02-18T10:15:55;11.40;96.60
38480;DHT22;62333;51.980;5.934;2023-02-18T10:18:26;11.40;96.40
38480;DHT22;62333;51.980;5.934;2023-02-18T10:20:55;11.40;96.40
38480;DHT22;62333;51.980;5.934;2023-02-18T10:23:23;11.40;96.30
38480;DHT22;62333;51.980;5.934;2023-02-18T10:25:50;11.50;96.30
38480;DHT22;62333;51.980;5.934;2023-02-18T10:28:18;11.40;96.30
38480;DHT22;62333;51.980;5.934;2023-02-18T10:30:59;11.40;96.40
38480;DHT22;62333;51.980;5.934;2023-02-18T10:36:07;11.40;96.70
38480;DHT22;62333;51.980;5.934;2023-02-18T10:41:25;11.40;96.90
38480;DHT22;62333;51.980;5.934;2023-02-18T10:44:04;11.40;96.80
38480;DHT22;62333;51.980;5.934;2023-02-18T10:46:55;11.40;96.80
38480;DHT22;62333;51.980;5.934;2023-02-18T10:52:01;11.30;96.90
38480;DHT22;62333;51.980;5.934;2023-02-18T10:57:20;11.40;97.00
38480;DHT22;62333;51.980;5.934;2023-02-18T10:59:58;11.40;97.00
38480;DHT22;62333;51.980;5.934;2023-02-18T11:02:30;11.40;97.10
38480;DHT22;62333;51.980;5.934;2023-02-18T11:04:58;11.40;97.10
38480;DHT22;62333;51.980;5.934;2023-02-18T11:07:30;11.40;97.20
38480;DHT22;62333;51.980;5.934;2023-02-18T11:10:28;11.40;97.20
38480;DHT22;62333;51.980;5.934;2023-02-18T11:12:57;11.40;97.20
38480;DHT22;62333;51.980;5.934;2023-02-18T11:15:26;11.50;97.20
38480;DHT22;62333;51.980;5.934;2023-02-18T11:17:54;11.50;97.20
38480;DHT22;62333;51.980;5.934;2023-02-18T11:20:29;11.50;97.20
38480;DHT22;62333;51.980;5.934;2023-02-18T11:23:16;11.50;97.10
38480;DHT22;62333;51.980;5.934;2023-02-18T11:26:03;11.50;97.00
38480;DHT22;62333;51.980;5.934;2023-02-18T11:28:50;11.60;97.00
38480;DHT22;62333;51.980;5.934;2023-02-18T11:31:23;11.60;96.90
38480;DHT22;62333;51.980;5.934;2023-02-18T11:33:58;11.60;96.80
38480;DHT22;62333;51.980;5.934;2023-02-18T11:38:58;11.70;96.70
38480;DHT22;62333;51.980;5.934;2023-02-18T11:41:32;11.70;96.90
38480;DHT22;62333;51.980;5.934;2023-02-18T11:43:59;11.80;96.50
38480;DHT22;62333;51.980;5.934;2023-02-18T11:46:27;11.80;96.50
38480;DHT22;62333;51.980;5.934;2023-02-18T11:48:53;11.80;96.50
38480;DHT22;62333;51.980;5.934;2023-02-18T11:51:32;11.90;96.50
38480;DHT22;62333;51.980;5.934;2023-02-18T11:56:54;11.90;96.30
38480;DHT22;62333;51.980;5.934;2023-02-18T11:59:21;12.00;96.40
38480;DHT22;62333;51.980;5.934;2023-02-18T12:01:52;12.00;96.30
38480;DHT22;62333;51.980;5.934;2023-02-18T12:04:44;12.00;96.30
38480;DHT22;62333;51.980;5.934;2023-02-18T12:07:18;12.00;96.20
38480;DHT22;62333;51.980;5.934;2023-02-18T12:09:54;12.00;96.20
38480;DHT22;62333;51.980;5.934;2023-02-18T12:12:28;12.00;96.20
38480;DHT22;62333;51.980;5.934;2023-02-18T12:14:55;12.10;96.30
38480;DHT22;62333;51.980;5.934;2023-02-18T12:23:13;12.10;96.30
38480;DHT22;62333;51.980;5.934;2023-02-18T12:31:42;12.10;96.60
38480;DHT22;62333;51.980;5.934;2023-02-18T12:40:13;12.10;96.70
38480;DHT22;62333;51.980;5.934;2023-02-18T12:45:50;12.00;96.70
38480;DHT22;62333;51.980;5.934;2023-02-18T12:51:12;12.10;96.80
38480;DHT22;62333;51.980;5.934;2023-02-18T13:04:49;12.10;96.40
38480;DHT22;62333;51.980;5.934;2023-02-18T13:12:49;12.20;96.10
38480;DHT22;62333;51.980;5.934;2023-02-18T13:18:04;12.20;96.00
38480;DHT22;62333;51.980;5.934;2023-02-18T13:20:40;12.20;96.00
38480;DHT22;62333;51.980;5.934;2023-02-18T13:23:22;12.20;96.00
38480;DHT22;62333;51.980;5.934;2023-02-18T13:25:55;12.30;96.00
38480;DHT22;62333;51.980;5.934;2023-02-18T13:37:34;12.30;95.90
38480;DHT22;62333;51.980;5.934;2023-02-18T13:39:34;12.40;95.80
38480;DHT22;62333;51.980;5.934;2023-02-18T13:42:18;12.50;95.80
38480;DHT22;62333;51.980;5.934;2023-02-18T13:47:41;12.50;95.70
38480;DHT22;62333;51.980;5.934;2023-02-18T13:52:57;12.50;95.50
38480;DHT22;62333;51.980;5.934;2023-02-18T13:58:02;12.50;95.50
38480;DHT22;62333;51.980;5.934;2023-02-18T14:00:36;12.50;95.50
38480;DHT22;62333;51.980;5.934;2023-02-18T14:06:25;12.60;95.40
38480;DHT22;62333;51.980;5.934;2023-02-18T14:19:53;12.60;95.20
38480;DHT22;62333;51.980;5.934;2023-02-18T14:22:44;12.60;95.50
38480;DHT22;62333;51.980;5.934;2023-02-18T14:27:38;12.70;95.20
38480;DHT22;62333;51.980;5.934;2023-02-18T14:30:17;12.70;95.10
38480;DHT22;62333;51.980;5.934;2023-02-18T14:32:44;12.70;95.10
38480;DHT22;62333;51.980;5.934;2023-02-18T14:40:35;12.70;95.00
38480;DHT22;62333;51.980;5.934;2023-02-18T14:43:28;12.70;95.00
38480;DHT22;62333;51.980;5.934;2023-02-18T14:51:39;12.60;94.90
38480;DHT22;62333;51.980;5.934;2023-02-18T14:54:12;12.60;94.90
38480;DHT22;62333;51.980;5.934;2023-02-18T14:56:59;12.70;95.00
38480;DHT22;62333;51.980;5.934;2023-02-18T14:59:29;12.70;95.00
38480;DHT22;62333;51.980;5.934;2023-02-18T15:01:56;12.70;95.00
38480;DHT22;62333;51.980;5.934;2023-02-18T15:04:24;12.70;95.00
38480;DHT22;62333;51.980;5.934;2023-02-18T15:07:02;12.70;95.00
38480;DHT22;62333;51.980;5.934;2023-02-18T15:09:28;12.70;95.00
38480;DHT22;62333;51.980;5.934;2023-02-18T15:12:00;12.70;94.90
38480;DHT22;62333;51.980;5.934;2023-02-18T15:14:32;12.70;94.90
38480;DHT22;62333;51.980;5.934;2023-02-18T15:16:59;12.70;94.90
38480;DHT22;62333;51.980;5.934;2023-02-18T15:19:26;12.70;94.90
38480;DHT22;62333;51.980;5.934;2023-02-18T15:21:55;12.70;94.90
38480;DHT22;62333;51.980;5.934;2023-02-18T15:26:56;12.70;94.90
38480;DHT22;62333;51.980;5.934;2023-02-18T15:29:25;12.70;94.90
38480;DHT22;62333;51.980;5.934;2023-02-18T15:31:54;12.70;94.90
38480;DHT22;62333;51.980;5.934;2023-02-18T15:34:29;12.70;94.80
38480;DHT22;62333;51.980;5.934;2023-02-18T15:36:57;12.80;94.80
38480;DHT22;62333;51.980;5.934;2023-02-18T15:39:24;12.80;94.70
38480;DHT22;62333;51.980;5.934;2023-02-18T15:42:01;12.80;94.70
38480;DHT22;62333;51.980;5.934;2023-02-18T15:44:29;12.70;94.80
38480;DHT22;62333;51.980;5.934;2023-02-18T15:47:05;12.70;94.80
38480;DHT22;62333;51.980;5.934;2023-02-18T15:49:34;12.80;94.80
38480;DHT22;62333;51.980;5.934;2023-02-18T15:52:02;12.80;94.80
38480;DHT22;62333;51.980;5.934;2023-02-18T15:54:29;12.80;94.80
38480;DHT22;62333;51.980;5.934;2023-02-18T15:56:57;12.80;94.80
38480;DHT22;62333;51.980;5.934;2023-02-18T15:59:32;12.80;94.70
38480;DHT22;62333;51.980;5.934;2023-02-18T16:04:38;12.80;94.70
38480;DHT22;62333;51.980;5.934;2023-02-18T16:07:24;12.80;94.70
38480;DHT22;62333;51.980;5.934;2023-02-18T16:10:14;12.80;94.80
38480;DHT22;62333;51.980;5.934;2023-02-18T16:12:43;12.80;94.80
38480;DHT22;62333;51.980;5.934;2023-02-18T16:15:15;12.80;94.70
38480;DHT22;62333;51.980;5.934;2023-02-18T16:17:43;12.80;94.80
38480;DHT22;62333;51.980;5.934;2023-02-18T16:20:28;12.80;94.70
38480;DHT22;62333;51.980;5.934;2023-02-18T16:22:59;12.80;94.70
38480;DHT22;62333;51.980;5.934;2023-02-18T16:25:45;12.80;94.70
38480;DHT22;62333;51.980;5.934;2023-02-18T16:28:21;12.80;94.70
38480;DHT22;62333;51.980;5.934;2023-02-18T16:30:47;12.80;94.70
38480;DHT22;62333;51.980;5.934;2023-02-18T16:33:13;12.70;94.70
38480;DHT22;62333;51.980;5.934;2023-02-18T16:35:39;12.80;94.80
38480;DHT22;62333;51.980;5.934;2023-02-18T16:38:05;12.70;94.80
38480;DHT22;62333;51.980;5.934;2023-02-18T16:40:36;12.80;94.80
38480;DHT22;62333;51.980;5.934;2023-02-18T16:43:20;12.70;94.70
38480;DHT22;62333;51.980;5.934;2023-02-18T16:45:51;12.70;94.80
38480;DHT22;62333;51.980;5.934;2023-02-18T16:48:28;12.70;94.80
38480;DHT22;62333;51.980;5.934;2023-02-18T16:50:54;12.70;94.80
38480;DHT22;62333;51.980;5.934;2023-02-18T16:53:20;12.70;94.80
38480;DHT22;62333;51.980;5.934;2023-02-18T16:55:48;12.70;94.80
38480;DHT22;62333;51.980;5.934;2023-02-18T16:58:14;12.70;94.80
38480;DHT22;62333;51.980;5.934;2023-02-18T17:00:40;12.70;94.80
38480;DHT22;62333;51.980;5.934;2023-02-18T17:03:06;12.60;94.80
38480;DHT22;62333;51.980;5.934;2023-02-18T17:05:33;12.70;94.80
38480;DHT22;62333;51.980;5.934;2023-02-18T17:10:45;12.60;94.80
38480;DHT22;62333;51.980;5.934;2023-02-18T17:13:16;12.60;94.80
38480;DHT22;62333;51.980;5.934;2023-02-18T17:15:43;12.60;94.90
38480;DHT22;62333;51.980;5.934;2023-02-18T17:18:09;12.60;94.90
38480;DHT22;62333;51.980;5.934;2023-02-18T17:20:35;12.60;94.90
38480;DHT22;62333;51.980;5.934;2023-02-18T17:23:01;12.60;94.90
38480;DHT22;62333;51.980;5.934;2023-02-18T17:25:38;12.60;94.90
38480;DHT22;62333;51.980;5.934;2023-02-18T17:28:04;12.60;94.90
38480;DHT22;62333;51.980;5.934;2023-02-18T17:30:33;12.60;95.00
38480;DHT22;62333;51.980;5.934;2023-02-18T17:33:00;12.60;95.00
38480;DHT22;62333;51.980;5.934;2023-02-18T17:35:26;12.60;95.00
38480;DHT22;62333;51.980;5.934;2023-02-18T17:37:52;12.60;95.00
38480;DHT22;62333;51.980;5.934;2023-02-18T17:40:23;12.60;95.00
38480;DHT22;62333;51.980;5.934;2023-02-18T17:42:49;12.60;95.00
38480;DHT22;62333;51.980;5.934;2023-02-18T17:45:38;12.60;95.00
38480;DHT22;62333;51.980;5.934;2023-02-18T17:48:04;12.50;95.00
38480;DHT22;62333;51.980;5.934;2023-02-18T17:50:31;12.50;95.10
38480;DHT22;62333;51.980;5.934;2023-02-18T17:52:56;12.50;95.10
38480;DHT22;62333;51.980;5.934;2023-02-18T17:55:24;12.50;95.10
38480;DHT22;62333;51.980;5.934;2023-02-18T17:57:51;12.50;95.10
38480;DHT22;62333;51.980;5.934;2023-02-18T18:00:41;12.50;95.10
38480;DHT22;62333;51.980;5.934;2023-02-18T18:03:05;12.50;95.10
38480;DHT22;62333;51.980;5.934;2023-02-18T18:05:33;12.50;95.20
38480;DHT22;62333;51.980;5.934;2023-02-18T18:08:01;12.50;95.20
38480;DHT22;62333;51.980;5.934;2023-02-18T18:10:29;12.50;95.20
38480;DHT22;62333;51.980;5.934;2023-02-18T18:12:57;12.50;95.20